sensor_id;sensor_type;location;lat;lon;timestamp;pressure;altitude;pressure_sealevel;temperature;humidity
141;BME280;65;48.778;9.160;2023-07-24T00:00:03;97798.38;;;19.44;98.99
141;BME280;65;48.778;9.160;2023-07-24T00:02:50;97810.41;;;18.54;100.00
141;BME280;65;48.778;9.160;2023-07-24T00:05:35;97855.91;;;18.01;100.00
141;BME280;65;48.778;9.160;2023-07-24T00:08:21;97849.19;;;17.69;100.00
141;BME280;65;48.778;9.160;2023-07-24T00:11:07;97823.78;;;17.56;100.00
141;BME280;65;48.778;9.160;2023-07-24T00:13:53;97835.50;;;17.45;100.00
141;BME280;65;48.778;9.160;2023-07-24T00:16:39;97818.25;;;17.30;100.00
141;BME280;65;48.778;9.160;2023-07-24T00:19:25;97832.22;;;17.24;100.00
141;BME280;65;48.778;9.160;2023-07-24T00:22:10;97848.78;;;17.27;100.00
141;BME280;65;48.778;9.160;2023-07-24T00:24:56;97813.28;;;17.17;100.00
141;BME280;65;48.778;9.160;2023-07-24T00:27:53;97833.09;;;17.15;100.00
141;BME280;65;48.778;9.160;2023-07-24T00:30:39;97809.22;;;17.13;100.00
141;BME280;65;48.778;9.160;2023-07-24T00:33:25;97791.47;;;17.22;100.00
141;BME280;65;48.778;9.160;2023-07-24T00:36:10;97796.25;;;17.18;100.00
141;BME280;65;48.778;9.160;2023-07-24T00:38:56;97779.69;;;17.15;100.00
141;BME280;65;48.778;9.160;2023-07-24T00:41:42;97778.31;;;17.11;100.00
141;BME280;65;48.778;9.160;2023-07-24T00:44:28;97776.22;;;17.04;100.00
141;BME280;65;48.778;9.160;2023-07-24T00:47:14;97786.34;;;17.01;100.00
141;BME280;65;48.778;9.160;2023-07-24T00:50:00;97786.34;;;17.01;100.00
141;BME280;65;48.778;9.160;2023-07-24T00:52:46;97781.03;;;17.01;100.00
141;BME280;65;48.778;9.160;2023-07-24T00:55:32;97779.72;;;17.05;100.00
141;BME280;65;48.778;9.160;2023-07-24T00:58:18;97770.00;;;17.14;100.00
141;BME280;65;48.778;9.160;2023-07-24T01:01:04;97771.47;;;17.26;100.00
141;BME280;65;48.778;9.160;2023-07-24T01:03:51;97771.56;;;17.34;100.00
141;BME280;65;48.778;9.160;2023-07-24T01:06:36;97763.66;;;17.42;100.00
141;BME280;65;48.778;9.160;2023-07-24T01:09:22;97748.47;;;17.43;100.00
141;BME280;65;48.778;9.160;2023-07-24T01:12:22;97745.44;;;17.37;100.00
141;BME280;65;48.778;9.160;2023-07-24T01:15:23;97742.63;;;17.29;100.00
141;BME280;65;48.778;9.160;2023-07-24T01:18:11;97739.41;;;17.26;100.00
141;BME280;65;48.778;9.160;2023-07-24T01:21:00;97742.69;;;17.20;100.00
141;BME280;65;48.778;9.160;2023-07-24T01:24:10;97733.44;;;17.14;100.00
141;BME280;65;48.778;9.160;2023-07-24T01:27:00;97728.41;;;17.11;100.00
141;BME280;65;48.778;9.160;2023-07-24T01:29:46;97727.72;;;17.09;100.00
141;BME280;65;48.778;9.160;2023-07-24T01:32:32;97730.84;;;17.04;100.00
141;BME280;65;48.778;9.160;2023-07-24T01:35:18;97732.13;;;17.00;100.00
141;BME280;65;48.778;9.160;2023-07-24T01:38:04;97733.94;;;17.00;100.00
141;BME280;65;48.778;9.160;2023-07-24T01:40:52;97733.66;;;17.03;100.00
141;BME280;65;48.778;9.160;2023-07-24T01:43:38;97735.63;;;17.01;100.00
141;BME280;65;48.778;9.160;2023-07-24T01:46:23;97733.56;;;16.95;100.00
141;BME280;65;48.778;9.160;2023-07-24T01:49:09;97730.75;;;16.96;100.00
141;BME280;65;48.778;9.160;2023-07-24T01:51:55;97728.06;;;16.96;100.00
141;BME280;65;48.778;9.160;2023-07-24T01:54:42;97728.06;;;16.96;100.00
141;BME280;65;48.778;9.160;2023-07-24T01:57:27;97727.03;;;17.07;100.00
141;BME280;65;48.778;9.160;2023-07-24T02:00:13;97723.00;;;17.21;100.00
141;BME280;65;48.778;9.160;2023-07-24T02:02:59;97726.72;;;17.37;100.00
141;BME280;65;48.778;9.160;2023-07-24T02:05:49;97728.19;;;17.50;98.40
141;BME280;65;48.778;9.160;2023-07-24T02:08:35;97720.84;;;17.52;99.53
141;BME280;65;48.778;9.160;2023-07-24T02:11:21;97719.47;;;17.48;100.00
141;BME280;65;48.778;9.160;2023-07-24T02:14:07;97709.19;;;17.53;100.00
141;BME280;65;48.778;9.160;2023-07-24T02:16:53;97704.59;;;17.63;99.57
141;BME280;65;48.778;9.160;2023-07-24T02:19:38;97704.31;;;17.84;97.56
141;BME280;65;48.778;9.160;2023-07-24T02:22:24;97702.94;;;17.97;95.27
141;BME280;65;48.778;9.160;2023-07-24T02:25:10;97707.19;;;17.90;94.53
141;BME280;65;48.778;9.160;2023-07-24T02:27:56;97702.16;;;17.87;95.41
141;BME280;65;48.778;9.160;2023-07-24T02:30:41;97713.47;;;17.81;97.86
141;BME280;65;48.778;9.160;2023-07-24T02:33:27;97712.16;;;17.85;96.05
141;BME280;65;48.778;9.160;2023-07-24T02:36:13;97714.53;;;17.88;97.12
141;BME280;65;48.778;9.160;2023-07-24T02:38:58;97706.91;;;17.93;94.84
141;BME280;65;48.778;9.160;2023-07-24T02:41:44;97701.25;;;17.96;97.28
141;BME280;65;48.778;9.160;2023-07-24T02:44:33;97703.25;;;17.94;99.12
141;BME280;65;48.778;9.160;2023-07-24T02:47:19;97689.47;;;17.89;97.79
141;BME280;65;48.778;9.160;2023-07-24T02:50:05;97675.44;;;17.87;95.23
141;BME280;65;48.778;9.160;2023-07-24T02:52:51;97677.41;;;17.85;95.47
141;BME280;65;48.778;9.160;2023-07-24T02:55:41;97681.09;;;17.84;96.86
141;BME280;65;48.778;9.160;2023-07-24T02:58:27;97684.59;;;17.85;94.64
141;BME280;65;48.778;9.160;2023-07-24T03:01:13;97675.56;;;17.86;93.82
141;BME280;65;48.778;9.160;2023-07-24T03:03:59;97663.53;;;17.82;93.92
141;BME280;65;48.778;9.160;2023-07-24T03:06:45;97662.84;;;17.80;94.06
141;BME280;65;48.778;9.160;2023-07-24T03:09:31;97660.63;;;17.75;95.51
141;BME280;65;48.778;9.160;2023-07-24T03:12:17;97665.19;;;17.65;95.32
141;BME280;65;48.778;9.160;2023-07-24T03:15:02;97659.47;;;17.60;94.56
141;BME280;65;48.778;9.160;2023-07-24T03:17:48;97647.56;;;17.54;93.68
141;BME280;65;48.778;9.160;2023-07-24T03:20:34;97636.88;;;17.54;95.39
141;BME280;65;48.778;9.160;2023-07-24T03:23:20;97632.00;;;17.50;93.86
141;BME280;65;48.778;9.160;2023-07-24T03:26:05;97643.69;;;17.49;93.89
141;BME280;65;48.778;9.160;2023-07-24T03:28:51;97655.34;;;17.48;95.89
141;BME280;65;48.778;9.160;2023-07-24T03:31:37;97657.66;;;17.43;95.36
141;BME280;65;48.778;9.160;2023-07-24T03:34:22;97653.38;;;17.50;93.06
141;BME280;65;48.778;9.160;2023-07-24T03:37:08;97656.88;;;17.50;93.50
141;BME280;65;48.778;9.160;2023-07-24T03:39:54;97652.06;;;17.54;92.34
141;BME280;65;48.778;9.160;2023-07-24T03:42:39;97647.03;;;17.51;93.24
141;BME280;65;48.778;9.160;2023-07-24T03:45:34;97656.88;;;17.50;93.56
141;BME280;65;48.778;9.160;2023-07-24T03:48:20;97654.06;;;17.52;94.51
141;BME280;65;48.778;9.160;2023-07-24T03:51:06;97642.75;;;17.58;93.69
141;BME280;65;48.778;9.160;2023-07-24T03:53:52;97645.66;;;17.64;91.90
141;BME280;65;48.778;9.160;2023-07-24T03:56:38;97655.44;;;17.74;91.77
141;BME280;65;48.778;9.160;2023-07-24T03:59:24;97644.66;;;17.83;91.60
141;BME280;65;48.778;9.160;2023-07-24T04:02:10;97646.09;;;17.95;91.75
141;BME280;65;48.778;9.160;2023-07-24T04:04:56;97645.00;;;18.06;93.08
141;BME280;65;48.778;9.160;2023-07-24T04:07:41;97656.28;;;18.18;89.75
141;BME280;65;48.778;9.160;2023-07-24T04:10:27;97649.97;;;18.27;87.46
141;BME280;65;48.778;9.160;2023-07-24T04:13:13;97650.84;;;18.36;88.76
141;BME280;65;48.778;9.160;2023-07-24T04:15:58;97636.69;;;18.43;87.37
141;BME280;65;48.778;9.160;2023-07-24T04:18:44;97630.69;;;18.49;83.99
141;BME280;65;48.778;9.160;2023-07-24T04:21:30;97631.75;;;18.56;87.32
141;BME280;65;48.778;9.160;2023-07-24T04:24:16;97631.81;;;18.64;87.18
141;BME280;65;48.778;9.160;2023-07-24T04:27:02;97618.47;;;18.73;84.83
141;BME280;65;48.778;9.160;2023-07-24T04:29:47;97618.00;;;18.85;87.69
141;BME280;65;48.778;9.160;2023-07-24T04:32:33;97601.13;;;18.93;87.90
141;BME280;65;48.778;9.160;2023-07-24T04:35:19;97598.78;;;19.06;88.10
141;BME280;65;48.778;9.160;2023-07-24T04:38:05;97590.63;;;19.16;88.03
141;BME280;65;48.778;9.160;2023-07-24T04:40:50;97593.16;;;19.34;86.74
141;BME280;65;48.778;9.160;2023-07-24T04:43:36;97605.56;;;19.43;85.97
141;BME280;65;48.778;9.160;2023-07-24T04:46:22;97597.84;;;19.40;84.58
141;BME280;65;48.778;9.160;2023-07-24T04:49:08;97595.50;;;19.45;85.13
141;BME280;65;48.778;9.160;2023-07-24T04:51:53;97594.16;;;19.49;85.53
141;BME280;65;48.778;9.160;2023-07-24T04:54:39;97600.06;;;19.52;85.89
141;BME280;65;48.778;9.160;2023-07-24T04:57:25;97596.22;;;19.55;85.61
141;BME280;65;48.778;9.160;2023-07-24T05:00:11;97601.38;;;19.48;89.14
141;BME280;65;48.778;9.160;2023-07-24T05:02:56;97596.84;;;19.49;86.73
141;BME280;65;48.778;9.160;2023-07-24T05:05:42;97586.16;;;19.57;86.78
141;BME280;65;48.778;9.160;2023-07-24T05:08:28;97596.41;;;19.70;86.55
141;BME280;65;48.778;9.160;2023-07-24T05:11:14;97589.00;;;19.80;87.30
141;BME280;65;48.778;9.160;2023-07-24T05:13:59;97577.72;;;20.01;76.60
141;BME280;65;48.778;9.160;2023-07-24T05:16:45;97577.19;;;20.13;73.13
141;BME280;65;48.778;9.160;2023-07-24T05:19:31;97578.00;;;20.30;70.26
141;BME280;65;48.778;9.160;2023-07-24T05:22:16;97579.69;;;20.31;70.67
141;BME280;65;48.778;9.160;2023-07-24T05:25:05;97589.41;;;20.32;69.40
141;BME280;65;48.778;9.160;2023-07-24T05:27:51;97589.75;;;20.21;70.73
141;BME280;65;48.778;9.160;2023-07-24T05:30:37;97599.66;;;20.20;69.15
141;BME280;65;48.778;9.160;2023-07-24T05:33:22;97610.38;;;20.20;69.26
141;BME280;65;48.778;9.160;2023-07-24T05:36:08;97614.41;;;20.16;71.60
141;BME280;65;48.778;9.160;2023-07-24T05:38:54;97627.50;;;20.19;71.05
141;BME280;65;48.778;9.160;2023-07-24T05:41:40;97634.38;;;20.14;72.19
141;BME280;65;48.778;9.160;2023-07-24T05:44:25;97635.53;;;20.19;71.74
141;BME280;65;48.778;9.160;2023-07-24T05:47:11;97635.72;;;20.26;71.18
141;BME280;65;48.778;9.160;2023-07-24T05:49:57;97643.41;;;20.21;71.06
141;BME280;65;48.778;9.160;2023-07-24T05:52:42;97647.78;;;20.30;71.14
141;BME280;65;48.778;9.160;2023-07-24T05:55:28;97648.47;;;20.32;70.66
141;BME280;65;48.778;9.160;2023-07-24T05:58:14;97654.16;;;20.37;71.32
141;BME280;65;48.778;9.160;2023-07-24T06:01:22;97653.97;;;20.47;70.97
141;BME280;65;48.778;9.160;2023-07-24T06:04:07;97651.13;;;20.48;70.14
141;BME280;65;48.778;9.160;2023-07-24T06:06:53;97646.06;;;20.53;74.61
141;BME280;65;48.778;9.160;2023-07-24T06:09:39;97643.75;;;20.50;72.14
141;BME280;65;48.778;9.160;2023-07-24T06:12:24;97635.31;;;20.62;77.19
141;BME280;65;48.778;9.160;2023-07-24T06:15:10;97635.97;;;20.64;77.16
141;BME280;65;48.778;9.160;2023-07-24T06:17:56;97637.47;;;20.66;75.85
141;BME280;65;48.778;9.160;2023-07-24T06:20:41;97640.28;;;20.73;75.25
141;BME280;65;48.778;9.160;2023-07-24T06:23:27;97642.38;;;21.02;68.06
141;BME280;65;48.778;9.160;2023-07-24T06:26:13;97634.91;;;21.12;66.85
141;BME280;65;48.778;9.160;2023-07-24T06:28:59;97626.41;;;21.00;69.71
141;BME280;65;48.778;9.160;2023-07-24T06:31:44;97620.34;;;21.06;71.64
141;BME280;65;48.778;9.160;2023-07-24T06:34:30;97617.94;;;21.11;69.88
141;BME280;65;48.778;9.160;2023-07-24T06:37:16;97600.84;;;21.35;67.06
141;BME280;65;48.778;9.160;2023-07-24T06:40:01;97607.84;;;21.67;64.08
141;BME280;65;48.778;9.160;2023-07-24T06:42:48;97601.44;;;21.68;63.96
141;BME280;65;48.778;9.160;2023-07-24T06:45:33;97594.19;;;21.54;67.74
141;BME280;65;48.778;9.160;2023-07-24T06:48:19;97585.59;;;21.73;65.08
141;BME280;65;48.778;9.160;2023-07-24T06:51:05;97596.88;;;21.92;64.04
141;BME280;65;48.778;9.160;2023-07-24T06:53:51;97592.56;;;21.83;66.67
141;BME280;65;48.778;9.160;2023-07-24T06:56:36;97596.00;;;21.76;66.75
141;BME280;65;48.778;9.160;2023-07-24T06:59:23;97587.81;;;21.70;65.86
141;BME280;65;48.778;9.160;2023-07-24T07:02:09;97581.31;;;21.64;68.08
141;BME280;65;48.778;9.160;2023-07-24T07:04:55;97581.97;;;21.66;68.23
141;BME280;65;48.778;9.160;2023-07-24T07:07:40;97580.47;;;21.64;67.94
141;BME280;65;48.778;9.160;2023-07-24T07:10:27;97573.16;;;21.72;70.41
141;BME280;65;48.778;9.160;2023-07-24T07:13:13;97580.03;;;21.75;67.86
141;BME280;65;48.778;9.160;2023-07-24T07:16:00;97598.44;;;21.86;66.89
141;BME280;65;48.778;9.160;2023-07-24T07:18:45;97611.47;;;21.97;64.90
141;BME280;65;48.778;9.160;2023-07-24T07:21:31;97612.44;;;21.82;66.89
141;BME280;65;48.778;9.160;2023-07-24T07:24:17;97618.28;;;21.85;66.70
141;BME280;65;48.778;9.160;2023-07-24T07:27:03;97620.13;;;21.85;66.41
141;BME280;65;48.778;9.160;2023-07-24T07:29:49;97625.81;;;21.90;66.00
141;BME280;65;48.778;9.160;2023-07-24T07:32:35;97629.16;;;21.92;66.31
141;BME280;65;48.778;9.160;2023-07-24T07:35:21;97633.50;;;21.93;66.08
141;BME280;65;48.778;9.160;2023-07-24T07:38:06;97648.28;;;22.05;65.87
141;BME280;65;48.778;9.160;2023-07-24T07:40:52;97651.44;;;22.08;65.97
141;BME280;65;48.778;9.160;2023-07-24T07:43:38;97657.75;;;22.16;67.49
141;BME280;65;48.778;9.160;2023-07-24T07:46:24;97670.03;;;22.48;64.37
141;BME280;65;48.778;9.160;2023-07-24T07:49:11;97660.97;;;22.63;63.67
141;BME280;65;48.778;9.160;2023-07-24T07:51:56;97660.88;;;22.57;64.73
141;BME280;65;48.778;9.160;2023-07-24T07:54:46;97670.31;;;22.53;65.22
141;BME280;65;48.778;9.160;2023-07-24T07:57:34;97673.00;;;22.53;66.11
141;BME280;65;48.778;9.160;2023-07-24T08:00:21;97681.44;;;22.35;68.72
141;BME280;65;48.778;9.160;2023-07-24T08:06:33;97715.56;;;22.05;73.46
141;BME280;65;48.778;9.160;2023-07-24T08:09:19;97725.13;;;21.76;76.82
141;BME280;65;48.778;9.160;2023-07-24T08:12:07;97714.66;;;21.59;79.66
141;BME280;65;48.778;9.160;2023-07-24T08:14:53;97704.50;;;21.38;81.93
141;BME280;65;48.778;9.160;2023-07-24T08:17:38;97693.59;;;21.00;87.42
141;BME280;65;48.778;9.160;2023-07-24T08:20:24;97690.13;;;20.75;93.03
141;BME280;65;48.778;9.160;2023-07-24T08:23:10;97694.09;;;20.40;93.10
141;BME280;65;48.778;9.160;2023-07-24T08:25:55;97695.78;;;19.68;100.00
141;BME280;65;48.778;9.160;2023-07-24T08:28:41;97664.47;;;19.18;100.00
141;BME280;65;48.778;9.160;2023-07-24T08:31:29;97668.38;;;18.90;100.00
141;BME280;65;48.778;9.160;2023-07-24T08:34:15;97652.94;;;18.76;100.00
141;BME280;65;48.778;9.160;2023-07-24T08:37:01;97614.38;;;18.60;100.00
141;BME280;65;48.778;9.160;2023-07-24T08:39:46;97620.38;;;18.54;100.00
141;BME280;65;48.778;9.160;2023-07-24T08:42:32;97603.41;;;18.72;100.00
141;BME280;65;48.778;9.160;2023-07-24T08:45:19;97591.72;;;18.89;100.00
141;BME280;65;48.778;9.160;2023-07-24T08:48:05;97587.41;;;18.96;100.00
141;BME280;65;48.778;9.160;2023-07-24T08:50:51;97603.53;;;19.12;100.00
141;BME280;65;48.778;9.160;2023-07-24T08:53:43;97603.69;;;19.19;100.00
141;BME280;65;48.778;9.160;2023-07-24T08:56:29;97606.22;;;19.20;100.00
141;BME280;65;48.778;9.160;2023-07-24T08:59:15;97590.97;;;19.37;100.00
141;BME280;65;48.778;9.160;2023-07-24T09:02:01;97587.00;;;19.57;100.00
141;BME280;65;48.778;9.160;2023-07-24T09:04:47;97592.03;;;19.77;100.00
141;BME280;65;48.778;9.160;2023-07-24T09:07:32;97599.03;;;19.94;100.00
141;BME280;65;48.778;9.160;2023-07-24T09:10:36;97609.72;;;20.27;100.00
141;BME280;65;48.778;9.160;2023-07-24T09:13:22;97608.50;;;20.37;100.00
141;BME280;65;48.778;9.160;2023-07-24T09:16:09;97605.44;;;20.57;100.00
141;BME280;65;48.778;9.160;2023-07-24T09:18:55;97595.03;;;20.62;100.00
141;BME280;65;48.778;9.160;2023-07-24T09:21:42;97593.00;;;20.64;100.00
141;BME280;65;48.778;9.160;2023-07-24T09:24:29;97596.84;;;21.00;100.00
141;BME280;65;48.778;9.160;2023-07-24T09:27:15;97598.22;;;20.96;100.00
141;BME280;65;48.778;9.160;2023-07-24T09:30:01;97604.56;;;21.34;100.00
141;BME280;65;48.778;9.160;2023-07-24T09:32:52;97596.09;;;21.45;99.58
141;BME280;65;48.778;9.160;2023-07-24T09:35:38;97588.59;;;21.33;100.00
141;BME280;65;48.778;9.160;2023-07-24T09:38:24;97583.28;;;21.25;100.00
141;BME280;65;48.778;9.160;2023-07-24T09:41:09;97586.66;;;21.19;100.00
141;BME280;65;48.778;9.160;2023-07-24T09:44:00;97590.00;;;21.21;100.00
141;BME280;65;48.778;9.160;2023-07-24T09:46:46;97603.28;;;21.22;100.00
141;BME280;65;48.778;9.160;2023-07-24T09:49:32;97609.19;;;21.17;100.00
141;BME280;65;48.778;9.160;2023-07-24T09:52:19;97622.06;;;21.30;100.00
141;BME280;65;48.778;9.160;2023-07-24T09:55:08;97634.59;;;21.38;100.00
141;BME280;65;48.778;9.160;2023-07-24T09:57:56;97648.88;;;21.38;100.00
141;BME280;65;48.778;9.160;2023-07-24T10:00:44;97651.16;;;21.19;100.00
141;BME280;65;48.778;9.160;2023-07-24T10:03:31;97647.78;;;20.94;100.00
141;BME280;65;48.778;9.160;2023-07-24T10:06:16;97654.66;;;20.96;100.00
141;BME280;65;48.778;9.160;2023-07-24T10:09:02;97663.03;;;21.01;100.00
141;BME280;65;48.778;9.160;2023-07-24T10:11:51;97674.59;;;21.02;100.00
141;BME280;65;48.778;9.160;2023-07-24T10:14:38;97681.22;;;20.91;100.00
141;BME280;65;48.778;9.160;2023-07-24T10:17:34;97681.16;;;20.99;100.00
141;BME280;65;48.778;9.160;2023-07-24T10:20:21;97688.41;;;20.99;100.00
141;BME280;65;48.778;9.160;2023-07-24T10:23:11;97680.06;;;20.86;100.00
141;BME280;65;48.778;9.160;2023-07-24T10:26:05;97683.78;;;20.68;100.00
141;BME280;65;48.778;9.160;2023-07-24T10:29:15;97690.22;;;20.51;100.00
141;BME280;65;48.778;9.160;2023-07-24T10:32:01;97682.19;;;20.27;100.00
141;BME280;65;48.778;9.160;2023-07-24T10:34:56;97689.88;;;20.13;100.00
141;BME280;65;48.778;9.160;2023-07-24T10:37:41;97699.28;;;19.93;100.00
141;BME280;65;48.778;9.160;2023-07-24T10:40:27;97696.78;;;19.75;100.00
141;BME280;65;48.778;9.160;2023-07-24T10:43:17;97707.28;;;19.52;100.00
141;BME280;65;48.778;9.160;2023-07-24T10:46:03;97701.88;;;19.36;100.00
141;BME280;65;48.778;9.160;2023-07-24T10:48:50;97711.72;;;19.27;100.00
141;BME280;65;48.778;9.160;2023-07-24T10:51:36;97719.66;;;19.03;100.00
141;BME280;65;48.778;9.160;2023-07-24T10:54:25;97725.13;;;18.93;100.00
141;BME280;65;48.778;9.160;2023-07-24T10:57:00;97725.94;;;18.86;100.00
141;BME280;65;48.778;9.160;2023-07-24T10:59:44;97732.94;;;18.79;100.00
141;BME280;65;48.778;9.160;2023-07-24T11:02:30;97734.75;;;18.70;100.00
141;BME280;65;48.778;9.160;2023-07-24T11:05:16;97724.00;;;18.62;100.00
141;BME280;65;48.778;9.160;2023-07-24T11:08:14;97718.91;;;18.59;100.00
141;BME280;65;48.778;9.160;2023-07-24T11:11:00;97713.13;;;18.63;100.00
141;BME280;65;48.778;9.160;2023-07-24T11:13:49;97673.75;;;18.56;100.00
141;BME280;65;48.778;9.160;2023-07-24T11:16:35;97655.53;;;18.59;100.00
141;BME280;65;48.778;9.160;2023-07-24T11:19:24;97656.84;;;18.55;100.00
141;BME280;65;48.778;9.160;2023-07-24T11:22:10;97638.78;;;18.57;100.00
141;BME280;65;48.778;9.160;2023-07-24T11:24:56;97628.25;;;18.56;100.00
141;BME280;65;48.778;9.160;2023-07-24T11:27:45;97621.56;;;18.60;100.00
141;BME280;65;48.778;9.160;2023-07-24T11:30:33;97607.34;;;18.59;100.00
141;BME280;65;48.778;9.160;2023-07-24T11:33:32;97546.16;;;18.64;100.00
141;BME280;65;48.778;9.160;2023-07-24T11:36:19;97552.91;;;18.85;100.00
141;BME280;65;48.778;9.160;2023-07-24T11:39:04;97585.59;;;19.13;100.00
141;BME280;65;48.778;9.160;2023-07-24T11:41:50;97596.88;;;19.81;100.00
141;BME280;65;48.778;9.160;2023-07-24T11:44:36;97558.63;;;21.82;100.00
141;BME280;65;48.778;9.160;2023-07-24T11:47:22;97569.81;;;22.52;100.00
141;BME280;65;48.778;9.160;2023-07-24T11:50:08;97554.44;;;22.61;100.00
141;BME280;65;48.778;9.160;2023-07-24T11:52:54;97551.91;;;22.00;100.00
141;BME280;65;48.778;9.160;2023-07-24T11:55:39;97533.44;;;21.14;100.00
141;BME280;65;48.778;9.160;2023-07-24T11:58:26;97583.06;;;21.03;100.00
141;BME280;65;48.778;9.160;2023-07-24T12:01:12;97589.81;;;20.60;100.00
141;BME280;65;48.778;9.160;2023-07-24T12:03:59;97592.78;;;20.26;100.00
141;BME280;65;48.778;9.160;2023-07-24T12:06:44;97597.72;;;19.82;100.00
141;BME280;65;48.778;9.160;2023-07-24T12:09:15;97606.44;;;19.84;100.00
141;BME280;65;48.778;9.160;2023-07-24T12:11:44;97599.75;;;19.72;100.00
141;BME280;65;48.778;9.160;2023-07-24T12:14:10;97591.69;;;19.80;100.00
141;BME280;65;48.778;9.160;2023-07-24T12:16:36;97602.38;;;19.96;100.00
141;BME280;65;48.778;9.160;2023-07-24T12:19:02;97595.50;;;20.02;100.00
141;BME280;65;48.778;9.160;2023-07-24T12:21:27;97600.16;;;20.16;100.00
141;BME280;65;48.778;9.160;2023-07-24T12:23:53;97596.28;;;20.43;100.00
141;BME280;65;48.778;9.160;2023-07-24T12:26:18;97592.66;;;20.67;100.00
141;BME280;65;48.778;9.160;2023-07-24T12:28:44;97596.31;;;20.74;100.00
141;BME280;65;48.778;9.160;2023-07-24T12:31:09;97603.59;;;20.96;100.00
141;BME280;65;48.778;9.160;2023-07-24T12:33:35;97602.16;;;20.77;100.00
141;BME280;65;48.778;9.160;2023-07-24T12:36:00;97601.63;;;20.90;100.00
141;BME280;65;48.778;9.160;2023-07-24T12:38:27;97585.63;;;20.97;100.00
141;BME280;65;48.778;9.160;2023-07-24T12:40:53;97593.28;;;20.77;100.00
141;BME280;65;48.778;9.160;2023-07-24T12:43:18;97581.69;;;21.07;100.00
141;BME280;65;48.778;9.160;2023-07-24T12:45:46;97587.38;;;21.12;100.00
141;BME280;65;48.778;9.160;2023-07-24T12:48:13;97583.63;;;21.22;100.00
141;BME280;65;48.778;9.160;2023-07-24T12:50:39;97576.34;;;21.76;100.00
141;BME280;65;48.778;9.160;2023-07-24T12:53:05;97577.91;;;22.37;100.00
141;BME280;65;48.778;9.160;2023-07-24T12:55:31;97567.72;;;22.62;100.00
141;BME280;65;48.778;9.160;2023-07-24T12:57:56;97571.00;;;23.30;95.28
141;BME280;65;48.778;9.160;2023-07-24T13:00:22;97556.09;;;23.77;87.72
141;BME280;65;48.778;9.160;2023-07-24T13:02:48;97553.47;;;23.62;95.26
141;BME280;65;48.778;9.160;2023-07-24T13:05:14;97540.78;;;22.98;91.21
141;BME280;65;48.778;9.160;2023-07-24T13:07:40;97530.44;;;23.87;96.71
141;BME280;65;48.778;9.160;2023-07-24T13:10:06;97533.75;;;24.45;83.14
141;BME280;65;48.778;9.160;2023-07-24T13:12:32;97539.25;;;24.03;89.53
141;BME280;65;48.778;9.160;2023-07-24T13:14:57;97550.66;;;24.67;81.67
141;BME280;65;48.778;9.160;2023-07-24T13:17:23;97535.13;;;24.35;77.46
141;BME280;65;48.778;9.160;2023-07-24T13:20:08;97535.41;;;24.94;89.32
141;BME280;65;48.778;9.160;2023-07-24T13:22:34;97525.44;;;24.47;86.29
141;BME280;65;48.778;9.160;2023-07-24T13:25:18;97529.44;;;25.18;81.71
141;BME280;65;48.778;9.160;2023-07-24T13:28:02;97521.59;;;25.70;78.20
141;BME280;65;48.778;9.160;2023-07-24T13:30:48;97517.84;;;25.44;75.49
141;BME280;65;48.778;9.160;2023-07-24T13:33:34;97513.69;;;26.01;72.66
141;BME280;65;48.778;9.160;2023-07-24T13:36:19;97511.78;;;26.08;69.33
141;BME280;65;48.778;9.160;2023-07-24T13:39:05;97505.16;;;25.78;67.86
141;BME280;65;48.778;9.160;2023-07-24T13:41:51;97495.34;;;25.57;73.70
141;BME280;65;48.778;9.160;2023-07-24T13:44:37;97478.25;;;25.04;69.45
141;BME280;65;48.778;9.160;2023-07-24T13:47:23;97465.66;;;24.76;68.34
141;BME280;65;48.778;9.160;2023-07-24T13:50:09;97462.28;;;24.54;70.32
141;BME280;65;48.778;9.160;2023-07-24T13:52:55;97457.56;;;24.83;66.75
141;BME280;65;48.778;9.160;2023-07-24T13:55:40;97449.97;;;25.26;61.95
141;BME280;65;48.778;9.160;2023-07-24T13:58:26;97443.72;;;25.59;61.51
141;BME280;65;48.778;9.160;2023-07-24T14:01:15;97434.09;;;25.89;61.14
141;BME280;65;48.778;9.160;2023-07-24T14:04:00;97437.06;;;26.45;57.48
141;BME280;65;48.778;9.160;2023-07-24T14:06:46;97429.06;;;27.02;59.53
141;BME280;65;48.778;9.160;2023-07-24T14:09:32;97429.41;;;27.12;57.31
141;BME280;65;48.778;9.160;2023-07-24T14:12:21;97436.06;;;26.40;58.64
141;BME280;65;48.778;9.160;2023-07-24T14:15:07;97437.38;;;26.17;56.86
141;BME280;65;48.778;9.160;2023-07-24T14:17:53;97443.47;;;26.58;55.86
141;BME280;65;48.778;9.160;2023-07-24T14:20:39;97442.84;;;26.04;56.28
141;BME280;65;48.778;9.160;2023-07-24T14:23:25;97442.66;;;25.79;56.58
141;BME280;65;48.778;9.160;2023-07-24T14:26:11;97419.19;;;25.47;58.48
141;BME280;65;48.778;9.160;2023-07-24T14:29:30;97432.44;;;25.88;59.49
141;BME280;65;48.778;9.160;2023-07-24T14:32:16;97435.28;;;26.20;55.06
141;BME280;65;48.778;9.160;2023-07-24T14:35:02;97438.75;;;25.69;56.80
141;BME280;65;48.778;9.160;2023-07-24T14:37:48;97435.81;;;25.37;58.99
141;BME280;65;48.778;9.160;2023-07-24T14:40:35;97432.84;;;25.92;57.30
141;BME280;65;48.778;9.160;2023-07-24T14:43:21;97425.25;;;26.33;53.95
141;BME280;65;48.778;9.160;2023-07-24T14:46:06;97416.94;;;26.22;54.00
141;BME280;65;48.778;9.160;2023-07-24T14:48:52;97418.09;;;25.81;55.46
141;BME280;65;48.778;9.160;2023-07-24T14:51:38;97408.75;;;25.50;55.04
141;BME280;65;48.778;9.160;2023-07-24T14:54:24;97392.13;;;25.27;55.63
141;BME280;65;48.778;9.160;2023-07-24T14:57:09;97400.03;;;25.22;57.93
141;BME280;65;48.778;9.160;2023-07-24T14:59:56;97405.38;;;24.82;58.93
141;BME280;65;48.778;9.160;2023-07-24T15:02:42;97410.84;;;25.22;56.89
141;BME280;65;48.778;9.160;2023-07-24T15:05:28;97412.00;;;24.73;60.39
141;BME280;65;48.778;9.160;2023-07-24T15:08:14;97417.91;;;25.03;59.13
141;BME280;65;48.778;9.160;2023-07-24T15:14:30;97406.66;;;25.39;56.98
141;BME280;65;48.778;9.160;2023-07-24T15:17:16;97420.41;;;25.51;56.62
141;BME280;65;48.778;9.160;2023-07-24T15:20:05;97430.41;;;24.98;60.15
141;BME280;65;48.778;9.160;2023-07-24T15:22:51;97425.97;;;24.83;60.90
141;BME280;65;48.778;9.160;2023-07-24T15:25:40;97422.16;;;24.58;61.73
141;BME280;65;48.778;9.160;2023-07-24T15:28:26;97426.91;;;24.43;62.77
141;BME280;65;48.778;9.160;2023-07-24T15:31:11;97433.09;;;24.30;64.97
141;BME280;65;48.778;9.160;2023-07-24T15:33:57;97451.22;;;24.08;65.33
141;BME280;65;48.778;9.160;2023-07-24T15:36:43;97454.59;;;23.76;67.15